createdAt,value
2022-09-26T00:00:34.936Z,100.00
2022-09-26T00:05:36.983Z,100.00
2022-09-26T00:10:38.274Z,100.00
2022-09-26T00:15:39.582Z,100.00
2022-09-26T00:20:40.887Z,100.00
2022-09-26T00:25:48.984Z,100.00
2022-09-26T00:30:50.441Z,100.00
2022-09-26T00:35:52.434Z,100.00
2022-09-26T00:40:53.983Z,100.00
2022-09-26T00:46:01.685Z,100.00
2022-09-26T00:51:03.302Z,100.00
2022-09-26T00:56:07.398Z,100.00
2022-09-26T01:01:09.299Z,100.00
2022-09-26T01:06:11.316Z,100.00
2022-09-26T01:11:17.239Z,100.00
2022-09-26T01:16:18.829Z,100.00
2022-09-26T01:21:37.461Z,100.00
2022-09-26T01:27:01.355Z,100.00
2022-09-26T01:32:27.546Z,100.00
2022-09-26T01:37:44.632Z,100.00
2022-09-26T01:42:45.904Z,100.00
2022-09-26T01:47:52.276Z,100.00
2022-09-26T01:52:58.994Z,100.00
2022-09-26T01:58:12.989Z,100.00
2022-09-26T02:03:17.118Z,100.00
2022-09-26T02:08:24.355Z,100.00
2022-09-26T02:13:30.064Z,100.00
2022-09-26T02:18:34.941Z,100.00
2022-09-26T02:23:36.256Z,100.00
2022-09-26T02:28:37.624Z,100.00
2022-09-26T02:33:39.125Z,100.00
2022-09-26T02:38:40.433Z,100.00
2022-09-26T02:43:47.706Z,100.00
2022-09-26T02:49:04.301Z,100.00
2022-09-26T02:54:12.108Z,100.00
2022-09-26T02:59:21.444Z,100.00
2022-09-26T03:04:38.136Z,100.00
2022-09-26T03:09:41.569Z,100.00
2022-09-26T03:14:44.377Z,100.00
2022-09-26T03:19:52.576Z,100.00
2022-09-26T03:24:54.056Z,100.00
2022-09-26T03:29:55.362Z,100.00
2022-09-26T03:34:56.741Z,100.00
2022-09-26T03:39:58.042Z,100.00
2022-09-26T03:44:59.827Z,100.00
2022-09-26T03:50:01.365Z,100.00
2022-09-26T03:55:02.736Z,100.00
2022-09-26T04:00:04.283Z,100.00
2022-09-26T04:05:05.971Z,100.00
2022-09-26T04:10:07.535Z,100.00
2022-09-26T04:15:09.071Z,100.00
2022-09-26T04:20:10.378Z,100.00
2022-09-26T04:25:11.726Z,100.00
2022-09-26T04:30:13.563Z,100.00
2022-09-26T04:35:14.859Z,100.00
2022-09-26T04:40:16.217Z,100.00
2022-09-26T04:45:18.371Z,100.00
2022-09-26T04:50:19.713Z,100.00
2022-09-26T04:55:21.009Z,100.00
2022-09-26T05:00:23.479Z,100.00
2022-09-26T05:05:24.839Z,100.00
2022-09-26T05:10:26.153Z,100.00
2022-09-26T05:15:27.821Z,100.00
2022-09-26T05:20:31.352Z,100.00
2022-09-26T05:25:56.585Z,100.00
2022-09-26T05:30:57.881Z,100.00
2022-09-26T05:35:59.170Z,100.00
2022-09-26T05:41:00.733Z,100.00
2022-09-26T05:46:06.221Z,100.00
2022-09-26T05:51:10.917Z,100.00
2022-09-26T05:56:18.270Z,100.00
2022-09-26T06:01:20.319Z,100.00
2022-09-26T06:06:21.718Z,100.00
2022-09-26T06:11:24.929Z,100.00
2022-09-26T06:16:26.792Z,100.00
2022-09-26T06:21:28.207Z,100.00
2022-09-26T06:26:29.502Z,100.00
2022-09-26T06:31:30.996Z,100.00
2022-09-26T06:36:33.649Z,100.00
2022-09-26T06:41:35.230Z,100.00
2022-09-26T06:46:36.610Z,100.00
2022-09-26T06:51:38.254Z,100.00
2022-09-26T06:56:39.569Z,100.00
2022-09-26T07:01:41.455Z,100.00
2022-09-26T07:06:42.896Z,100.00
2022-09-26T07:12:12.761Z,100.00
2022-09-26T07:17:08.378Z,99.79
2022-09-26T07:22:09.897Z,99.51
2022-09-26T07:27:11.319Z,96.67
2022-09-26T07:32:13.170Z,92.59
2022-09-26T07:37:15.052Z,85.66
2022-09-26T07:42:17.280Z,88.97
2022-09-26T07:47:37.172Z,89.41
2022-09-26T07:52:39.918Z,85.81
2022-09-26T07:57:41.221Z,82.53
2022-09-26T08:02:45.253Z,84.81
2022-09-26T08:07:47.964Z,85.07
2022-09-26T08:12:49.714Z,84.01
2022-09-26T08:17:51.924Z,81.41
2022-09-26T08:22:56.313Z,78.35
2022-09-26T08:27:59.411Z,78.55
2022-09-26T08:33:02.049Z,68.40
2022-09-26T08:38:03.754Z,67.86
2022-09-26T08:43:18.297Z,65.57
2022-09-26T08:48:27.488Z,65.26
2022-09-26T08:53:35.200Z,65.84
2022-09-26T08:58:42.966Z,69.38
2022-09-26T09:03:52.993Z,69.16
2022-09-26T09:08:56.285Z,72.00
2022-09-26T09:14:00.363Z,74.15
2022-09-26T09:19:04.762Z,73.01
2022-09-26T09:24:24.975Z,73.48
2022-09-26T09:29:37.917Z,73.80
2022-09-26T09:34:41.332Z,75.60
2022-09-26T09:39:44.643Z,77.02
2022-09-26T09:44:53.765Z,77.16
2022-09-26T09:49:55.589Z,77.49
2022-09-26T09:55:10.616Z,77.41
2022-09-26T10:00:16.624Z,78.03
2022-09-26T10:05:36.636Z,76.92
2022-09-26T10:10:40.731Z,78.69
2022-09-26T10:15:44.724Z,79.56
2022-09-26T10:20:53.355Z,78.60
2022-09-26T10:26:00.053Z,78.00
2022-09-26T10:31:07.659Z,80.06
2022-09-26T10:36:28.028Z,80.83
2022-09-26T10:41:29.368Z,79.39
2022-09-26T10:46:30.941Z,78.68
2022-09-26T10:51:32.303Z,78.67
2022-09-26T10:56:37.035Z,77.23
2022-09-26T11:01:44.320Z,76.20
2022-09-26T11:06:45.675Z,74.90
2022-09-26T11:11:50.593Z,74.86
2022-09-26T11:16:53.866Z,74.51
2022-09-26T11:22:08.645Z,75.62
2022-09-26T11:27:31.585Z,74.44
2022-09-26T11:32:40.780Z,72.93
2022-09-26T11:38:06.860Z,73.22
2022-09-26T11:43:20.131Z,73.55
2022-09-26T11:48:27.456Z,72.06
2022-09-26T11:53:39.883Z,71.37
2022-09-26T11:58:41.168Z,70.07
2022-09-26T12:04:01.450Z,69.57
2022-09-26T12:09:07.489Z,68.74
2022-09-26T12:14:09.299Z,68.53
2022-09-26T12:19:16.549Z,70.13
2022-09-26T12:24:27.265Z,69.07
2022-09-26T12:29:49.915Z,68.96
2022-09-26T12:35:00.167Z,68.62
2022-09-26T12:40:09.477Z,69.70
2022-09-26T12:45:11.285Z,68.00
2022-09-26T12:50:16.072Z,68.33
2022-09-26T12:55:36.292Z,68.84
2022-09-26T13:00:44.683Z,68.13
2022-09-26T13:05:52.243Z,67.71
2022-09-26T13:11:05.766Z,67.01
2022-09-26T13:16:26.476Z,65.92
2022-09-26T13:21:33.752Z,65.35
2022-09-26T13:26:46.883Z,65.22
2022-09-26T13:31:48.262Z,66.95
2022-09-26T13:36:50.182Z,68.30
2022-09-26T13:42:01.283Z,68.30
2022-09-26T13:47:21.421Z,69.14
2022-09-26T13:52:41.428Z,71.31
2022-09-26T13:57:43.443Z,72.35
2022-09-26T14:03:04.848Z,72.79
2022-09-26T14:08:45.079Z,75.34
2022-09-26T14:13:47.645Z,79.32
2022-09-26T14:18:57.922Z,84.09
2022-09-26T14:24:18.156Z,84.27
2022-09-26T14:29:29.295Z,88.68
2022-09-26T14:34:50.867Z,91.89
2022-09-26T14:40:06.643Z,92.72
2022-09-26T14:45:18.752Z,95.19
2022-09-26T14:50:24.479Z,100.00
2022-09-26T14:55:26.949Z,99.53
2022-09-26T15:00:35.014Z,100.00
2022-09-26T15:05:36.635Z,100.00
2022-09-26T15:10:40.183Z,100.00
2022-09-26T15:15:47.208Z,100.00
2022-09-26T15:20:51.757Z,100.00
2022-09-26T15:25:55.069Z,100.00
2022-09-26T15:31:20.355Z,100.00
2022-09-26T15:36:21.927Z,100.00
2022-09-26T15:41:42.014Z,100.00
2022-09-26T15:46:43.333Z,100.00
2022-09-26T15:51:45.180Z,100.00
2022-09-26T15:56:48.396Z,100.00
2022-09-26T16:01:49.752Z,100.00
2022-09-26T16:06:53.459Z,100.00
2022-09-26T16:11:56.513Z,100.00
2022-09-26T16:17:11.723Z,100.00
2022-09-26T16:22:20.608Z,100.00
2022-09-26T16:27:33.090Z,100.00
2022-09-26T16:32:35.233Z,100.00
2022-09-26T16:37:36.695Z,99.78
2022-09-26T16:42:37.996Z,99.41
2022-09-26T16:47:47.720Z,99.81
2022-09-26T16:52:49.068Z,96.51
2022-09-26T16:57:55.590Z,97.54
2022-09-26T17:02:57.450Z,98.02
2022-09-26T17:07:58.780Z,99.36
2022-09-26T17:13:02.609Z,98.92
2022-09-26T17:18:06.709Z,100.00
2022-09-26T17:23:34.935Z,100.00
2022-09-26T17:28:38.579Z,100.00
2022-09-26T17:33:41.690Z,100.00
2022-09-26T17:38:43.355Z,100.00
2022-09-26T17:43:45.079Z,100.00
2022-09-26T17:48:46.389Z,100.00
2022-09-26T17:53:51.113Z,100.00
2022-09-26T17:58:54.107Z,100.00
2022-09-26T18:03:57.301Z,100.00
2022-09-26T18:09:01.833Z,100.00
2022-09-26T18:14:04.674Z,100.00
2022-09-26T18:19:14.121Z,100.00
2022-09-26T18:24:19.815Z,100.00
2022-09-26T18:29:35.396Z,100.00
2022-09-26T18:34:36.713Z,100.00
2022-09-26T18:39:37.984Z,100.00
2022-09-26T18:44:40.233Z,100.00
2022-09-26T18:49:43.714Z,100.00
2022-09-26T18:54:45.768Z,100.00
2022-09-26T18:59:47.068Z,100.00
2022-09-26T19:04:49.105Z,100.00
2022-09-26T19:09:50.458Z,100.00
2022-09-26T19:14:51.921Z,100.00
2022-09-26T19:19:53.226Z,100.00
2022-09-26T19:24:57.028Z,100.00
2022-09-26T19:30:01.587Z,100.00
2022-09-26T19:35:04.884Z,100.00
2022-09-26T19:40:12.411Z,100.00
2022-09-26T19:45:14.923Z,100.00
2022-09-26T19:50:18.030Z,100.00
2022-09-26T19:55:21.600Z,100.00
2022-09-26T20:00:23.796Z,100.00
2022-09-26T20:05:26.297Z,100.00
2022-09-26T20:10:29.119Z,100.00
2022-09-26T20:15:31.511Z,100.00
2022-09-26T20:20:34.834Z,100.00
2022-09-26T20:25:36.616Z,100.00
2022-09-26T20:30:55.261Z,100.00
2022-09-26T20:36:03.262Z,100.00
2022-09-26T20:41:13.478Z,100.00
2022-09-26T20:46:15.195Z,100.00
2022-09-26T20:51:20.911Z,100.00
2022-09-26T20:56:22.228Z,100.00
2022-09-26T21:01:26.737Z,100.00
2022-09-26T21:06:33.162Z,100.00
2022-09-26T21:11:34.473Z,100.00
2022-09-26T21:16:38.913Z,100.00
2022-09-26T21:21:40.940Z,100.00
2022-09-26T21:26:42.317Z,100.00
2022-09-26T21:31:46.687Z,100.00
2022-09-26T21:36:48.888Z,100.00
2022-09-26T21:41:52.504Z,100.00
2022-09-26T21:46:53.866Z,100.00
2022-09-26T21:51:57.380Z,100.00
2022-09-26T21:57:03.028Z,100.00
2022-09-26T22:02:04.444Z,100.00
2022-09-26T22:07:05.786Z,100.00
2022-09-26T22:12:07.150Z,100.00
2022-09-26T22:17:08.685Z,100.00
2022-09-26T22:22:10.652Z,100.00
2022-09-26T22:27:12.080Z,100.00
2022-09-26T22:32:13.378Z,100.00
2022-09-26T22:37:15.035Z,100.00
2022-09-26T22:42:16.332Z,100.00
2022-09-26T22:47:17.690Z,100.00
2022-09-26T22:52:19.059Z,100.00
2022-09-26T22:57:20.395Z,100.00
2022-09-26T23:02:21.823Z,100.00
2022-09-26T23:07:23.191Z,100.00
2022-09-26T23:12:24.493Z,100.00
2022-09-26T23:17:25.783Z,100.00
2022-09-26T23:22:27.075Z,100.00
2022-09-26T23:27:28.521Z,100.00
2022-09-26T23:32:29.830Z,100.00
2022-09-26T23:37:32.529Z,100.00
2022-09-26T23:42:33.933Z,100.00
2022-09-26T23:47:35.240Z,100.00
2022-09-26T23:52:36.535Z,100.00
2022-09-26T23:57:37.849Z,100.00
